Historyczne dane pomiarowe

Dodano dane terminowe – wersja testowa.

Dane z okresu 1951-2019

Wersja bazy: 1.34 [2019-03-16, lista zmian], aktualizacja planowana na 2019-04-15

Dane meteo z obszaru Polski uzyskane na podstawie danych udostępnionych przez Instytut Meteorologii i Gospodarki Wodnej – Państwowy Instytut Badawczy.

 

Wybierz Datę:    

       

TemperaturaWilgotnośćWiatrCiśnienieOpadyŚniegCzas trwania zjawisk
 Stacja t tx tn tng RH VA  wxwx mslp ppp RRR   cm mm wxwxwxwxwxwxwx
1987-08-14 15.1 19.0 12.1 9.1-- 8.0 0.3---- 0.8------------
1987-08-13 14.5 20.7 7.2 4.4-- 0.0 1.3---- 1.2------------
1987-08-12 12.9 18.1 7.4 4.3-- 4.0 1.3---- 0.0------------
1987-08-11 13.7 17.5 11.2 8.7-- 4.0 5.3---- 1.0------------
1987-08-10 14.0 16.7 12.0 12.5-- 6.7 1.0---- 9.5------------
1987-08-09 16.0 21.4 12.0 8.7-- 4.0 0.3---- 9.8------------
1987-08-08 14.5 20.7 9.3 6.5-- 2.7 0.7---- 0.0------------
1987-08-07 13.1 18.3 6.6 4.6-- 0.0 1.0---- 0.0------------
1987-08-06 11.3 14.5 9.6 7.9-- 6.7 5.7---- 2.6------------
1987-08-05 12.6 15.5 8.6 6.9-- 8.0 3.3---- 2.0------------
1987-08-04 13.1 17.1 9.7 6.9-- 6.7 2.3---- 0.0------------
1987-08-03 13.9 19.4 10.0 7.8-- 6.7 1.3---- 0.0------------
1987-08-02 13.1 17.0 10.5 9.1-- 6.7 2.0---- 9.9------------
1987-08-01 15.9 18.8 14.2 13.5-- 8.0 2.3---- 3.2------------
1987-07-31 15.8 18.0 12.7 12.5-- 6.7 4.3---- 0.6------------
1987-07-30 16.9 24.1 12.7 10.8-- 5.3 0.0---- 7.7------------
1987-07-29 14.5 17.3 10.8 8.8-- 6.7 1.0---- 0.0------------
1987-07-28 13.6 16.4 12.1 11.6-- 8.0 4.7---- 0.0------------
1987-07-27 13.2 17.4 10.2 8.4-- 8.0 4.7---- 1.2------------
1987-07-26 13.6 17.8 9.1 7.2-- 2.7 4.0---- 0.0------------
1987-07-25 15.3 20.8 11.9 12.1-- 6.7 1.7---- 0.2------------
1987-07-24 18.9 23.1 14.4 11.7-- 0.0 1.7---- 0.0------------
1987-07-23 19.1 24.2 13.6 12.2-- 4.0 1.0---- 0.4------------
1987-07-22 19.5 24.1 15.1 13.7-- 5.3 0.3---- 0.0------------
1987-07-21 18.0 23.2 14.1 11.6-- 5.3 0.7---- 23.7------------
1987-07-20 19.0 23.7 15.6 10.4-- 2.7 0.7---- 0.0------------
1987-07-19 18.2 21.3 15.1 7.2-- 8.0 1.0---- 6.2------------
1987-07-18 18.8 21.3 16.2 14.9-- 8.0 1.3---- 18.2------------
1987-07-17 21.1 27.0 16.2 15.4-- 2.7 6.0---- 0.7------------
1987-07-16 19.0 24.5 13.2 12.5-- 4.0 5.7---- 0.0------------
1987-07-15 18.1 23.5 10.6 8.0-- 0.0 4.0---- 1.5------------
1987-07-14 16.6 22.5 10.1 6.7-- 0.0 1.0---- 0.0------------
1987-07-13 16.0 19.9 12.5 9.5-- 2.7 4.3---- 0.0------------
1987-07-12 17.4 22.0 14.8 14.2-- 5.3 1.3---- 2.8------------
1987-07-11 15.9 23.8 11.9 8.6-- 8.0 4.0---- 34.0------------
1987-07-10 14.8 18.0 10.4 8.7-- 0.0 3.0---- 0.0------------
1987-07-09 16.6 21.0 14.0 14.5-- 2.7 2.7---- 1.4------------
1987-07-08 21.8 27.7 18.1 5.8-- 5.7 2.3---- 4.6------------
1987-07-07 22.4 29.3 11.3 8.7-- 0.0 2.0---- 0.0------------
1987-07-06 19.5 26.8 9.2 6.9-- 0.0 2.0---- 0.0------------
1987-07-05 16.8 23.8 8.5 3.7-- 0.0 1.3---- 0.0------------
1987-07-04 17.5 22.2 11.6 8.2-- 0.0 2.7---- 0.0------------
1987-07-03 17.5 23.7 9.6 6.7-- 2.7 1.7---- 0.0------------
1987-07-02 18.4 23.2 11.6 9.1-- 0.0 1.7---- 0.0------------
1987-07-01 23.6 29.0 20.7 19.0-- 5.3 3.0---- 0.0------------
1987-06-30 25.6 32.1 18.0 15.0-- 0.0 0.3---- 0.0------------
1987-06-29 21.6 27.4 13.6 10.7-- 2.3 1.7---- 0.0------------
1987-06-28 18.9 22.0 16.1 12.9-- 5.3 2.3---- 0.0------------
1987-06-27 17.6 21.5 13.1 11.8-- 0.0 2.7---- 0.0------------
1987-06-26 17.5 22.0 11.0 9.0-- 0.0 2.0---- 0.0------------
1987-06-25 13.9 17.4 10.9 10.6-- 6.7 0.7---- 0.0------------
1987-06-24 14.6 18.8 10.8 9.0-- 2.7 1.7---- 3.7------------
1987-06-23 13.8 18.2 7.9 6.2-- 0.0 1.7---- 2.7------------
1987-06-22 15.1 19.0 11.6 11.7-- 2.7 2.3---- 0.0------------
1987-06-21 16.5 21.2 11.3 10.5-- 0.0 1.3---- 0.0------------
1987-06-20 16.0 21.5 9.4 6.4-- 0.0 2.3---- 0.0------------
1987-06-19 13.0 17.7 9.1 8.2-- 0.0 2.3---- 0.0------------
1987-06-18 10.3 14.6 8.1 5.7-- 8.0 4.0---- 5.6------------
1987-06-17 12.6 15.3 9.9 9.6-- 2.7 3.7---- 0.2------------
1987-06-16 10.8 18.4 8.9 8.9-- 8.0 3.0---- 0.0------------
2295.0 ms

 

Źródłem pochodzenia danych jest Instytut Meteorologii i Gospodarki Wodnej – Państwowy Instytut Badawczy. Dane Instytutu Meteorologii i Gospodarki Wodnej – Państwowego Instytutu Badawczego zostały przetworzone.

Dane źródłowe można odnaleźć na stronie https://dane.imgw.pl